sensor_id;sensor_type;location;lat;lon;timestamp;pressure;altitude;pressure_sealevel;temperature;humidity
58668;BME280;59852;43.086;25.634;2022-10-16T00:02:06;99646.53;;;9.26;73.21
58668;BME280;59852;43.086;25.634;2022-10-16T00:04:31;99640.00;;;9.17;73.68
58668;BME280;59852;43.086;25.634;2022-10-16T00:06:56;99645.16;;;9.18;73.46
58668;BME280;59852;43.086;25.634;2022-10-16T00:09:22;99648.97;;;9.29;73.00
58668;BME280;59852;43.086;25.634;2022-10-16T00:11:47;99644.69;;;9.10;74.25
58668;BME280;59852;43.086;25.634;2022-10-16T00:14:13;99647.81;;;9.34;73.63
58668;BME280;59852;43.086;25.634;2022-10-16T00:16:39;99649.41;;;9.37;73.09
58668;BME280;59852;43.086;25.634;2022-10-16T00:19:05;99655.84;;;9.47;73.48
58668;BME280;59852;43.086;25.634;2022-10-16T00:21:30;99654.28;;;8.93;74.61
58668;BME280;59852;43.086;25.634;2022-10-16T00:23:58;99657.91;;;8.90;75.41
58668;BME280;59852;43.086;25.634;2022-10-16T00:26:24;99656.28;;;9.05;75.29
58668;BME280;59852;43.086;25.634;2022-10-16T00:28:50;99660.81;;;9.01;74.22
58668;BME280;59852;43.086;25.634;2022-10-16T00:31:16;99666.81;;;8.86;75.82
58668;BME280;59852;43.086;25.634;2022-10-16T00:33:43;99670.25;;;9.04;74.91
58668;BME280;59852;43.086;25.634;2022-10-16T00:36:09;99673.63;;;8.88;75.57
58668;BME280;59852;43.086;25.634;2022-10-16T00:38:35;99665.25;;;9.16;74.54
58668;BME280;59852;43.086;25.634;2022-10-16T00:41:02;99677.69;;;8.94;75.44
58668;BME280;59852;43.086;25.634;2022-10-16T00:43:39;99682.44;;;8.69;76.44
58668;BME280;59852;43.086;25.634;2022-10-16T00:46:08;99668.09;;;9.29;74.46
58668;BME280;59852;43.086;25.634;2022-10-16T00:48:34;99669.19;;;9.25;74.43
58668;BME280;59852;43.086;25.634;2022-10-16T00:50:59;99675.84;;;9.31;73.63
58668;BME280;59852;43.086;25.634;2022-10-16T00:53:25;99682.78;;;8.97;75.05
58668;BME280;59852;43.086;25.634;2022-10-16T00:55:51;99684.81;;;8.90;75.47
58668;BME280;59852;43.086;25.634;2022-10-16T00:58:16;99694.63;;;8.68;75.76
58668;BME280;59852;43.086;25.634;2022-10-16T01:00:42;99688.75;;;9.16;74.56
58668;BME280;59852;43.086;25.634;2022-10-16T01:05:54;99687.66;;;9.03;73.40
58668;BME280;59852;43.086;25.634;2022-10-16T01:08:30;99692.41;;;8.78;74.47
58668;BME280;59852;43.086;25.634;2022-10-16T01:11:09;99691.66;;;8.93;74.56
58668;BME280;59852;43.086;25.634;2022-10-16T01:13:40;99695.34;;;9.06;74.59
58668;BME280;59852;43.086;25.634;2022-10-16T01:18:52;99695.50;;;8.86;75.13
58668;BME280;59852;43.086;25.634;2022-10-16T01:29:00;99702.28;;;8.71;74.77
58668;BME280;59852;43.086;25.634;2022-10-16T01:31:29;99702.81;;;8.60;75.06
58668;BME280;59852;43.086;25.634;2022-10-16T01:33:57;99702.94;;;8.76;73.87
58668;BME280;59852;43.086;25.634;2022-10-16T01:36:25;99708.34;;;8.72;74.31
58668;BME280;59852;43.086;25.634;2022-10-16T01:38:52;99704.81;;;8.55;74.20
58668;BME280;59852;43.086;25.634;2022-10-16T01:41:21;99704.81;;;8.55;74.13
58668;BME280;59852;43.086;25.634;2022-10-16T01:43:52;99707.25;;;8.58;74.16
58668;BME280;59852;43.086;25.634;2022-10-16T01:46:19;99705.41;;;8.60;73.62
58668;BME280;59852;43.086;25.634;2022-10-16T01:48:47;99708.38;;;8.15;75.00
58668;BME280;59852;43.086;25.634;2022-10-16T01:51:13;99705.06;;;8.30;76.07
58668;BME280;59852;43.086;25.634;2022-10-16T01:53:40;99707.38;;;8.38;75.39
58668;BME280;59852;43.086;25.634;2022-10-16T01:56:08;99710.72;;;8.59;74.78
58668;BME280;59852;43.086;25.634;2022-10-16T01:58:35;99712.13;;;8.66;74.27
58668;BME280;59852;43.086;25.634;2022-10-16T02:01:03;99710.03;;;8.18;75.01
58668;BME280;59852;43.086;25.634;2022-10-16T02:03:29;99713.97;;;8.45;75.73
58668;BME280;59852;43.086;25.634;2022-10-16T02:05:55;99716.72;;;8.42;74.86
58668;BME280;59852;43.086;25.634;2022-10-16T02:08:22;99707.00;;;8.46;74.33
58668;BME280;59852;43.086;25.634;2022-10-16T02:10:49;99712.63;;;8.55;74.41
58668;BME280;59852;43.086;25.634;2022-10-16T02:13:25;99717.34;;;8.10;76.10
58668;BME280;59852;43.086;25.634;2022-10-16T02:15:52;99720.25;;;8.41;75.40
58668;BME280;59852;43.086;25.634;2022-10-16T02:18:18;99718.56;;;8.40;74.98
58668;BME280;59852;43.086;25.634;2022-10-16T02:23:16;99727.00;;;8.45;75.88
58668;BME280;59852;43.086;25.634;2022-10-16T02:25:44;99723.03;;;8.18;76.43
58668;BME280;59852;43.086;25.634;2022-10-16T02:30:39;99725.28;;;8.63;74.81
58668;BME280;59852;43.086;25.634;2022-10-16T02:33:08;99724.72;;;8.75;74.55
58668;BME280;59852;43.086;25.634;2022-10-16T02:35:34;99725.31;;;8.80;74.47
58668;BME280;59852;43.086;25.634;2022-10-16T02:38:00;99726.44;;;8.75;75.11
58668;BME280;59852;43.086;25.634;2022-10-16T02:40:26;99726.69;;;8.32;74.90
58668;BME280;59852;43.086;25.634;2022-10-16T02:42:53;99732.56;;;8.56;75.19
58668;BME280;59852;43.086;25.634;2022-10-16T02:45:19;99729.91;;;8.39;75.02
58668;BME280;59852;43.086;25.634;2022-10-16T02:47:45;99736.13;;;8.37;74.64
58668;BME280;59852;43.086;25.634;2022-10-16T02:50:10;99732.47;;;8.20;75.57
58668;BME280;59852;43.086;25.634;2022-10-16T02:52:35;99738.75;;;8.54;74.74
58668;BME280;59852;43.086;25.634;2022-10-16T02:55:01;99743.09;;;8.36;74.63
58668;BME280;59852;43.086;25.634;2022-10-16T02:57:26;99740.44;;;8.17;75.50
58668;BME280;59852;43.086;25.634;2022-10-16T02:59:52;99748.13;;;8.20;74.96
58668;BME280;59852;43.086;25.634;2022-10-16T03:02:17;99754.91;;;8.04;75.00
58668;BME280;59852;43.086;25.634;2022-10-16T03:04:43;99750.16;;;8.32;74.68
58668;BME280;59852;43.086;25.634;2022-10-16T03:07:08;99757.63;;;7.82;75.51
58668;BME280;59852;43.086;25.634;2022-10-16T03:09:33;99750.06;;;7.96;75.52
58668;BME280;59852;43.086;25.634;2022-10-16T03:11:59;99748.59;;;8.10;74.32
58668;BME280;59852;43.086;25.634;2022-10-16T03:14:24;99751.28;;;8.08;74.81
58668;BME280;59852;43.086;25.634;2022-10-16T03:16:49;99745.28;;;8.25;73.98
58668;BME280;59852;43.086;25.634;2022-10-16T03:19:18;99756.06;;;7.98;74.65
58668;BME280;59852;43.086;25.634;2022-10-16T03:21:43;99759.09;;;8.08;74.69
58668;BME280;59852;43.086;25.634;2022-10-16T03:24:09;99763.84;;;7.80;75.10
58668;BME280;59852;43.086;25.634;2022-10-16T03:26:34;99761.00;;;7.84;75.04
58668;BME280;59852;43.086;25.634;2022-10-16T03:28:59;99756.50;;;7.69;74.75
58668;BME280;59852;43.086;25.634;2022-10-16T03:31:25;99766.75;;;7.72;74.69
58668;BME280;59852;43.086;25.634;2022-10-16T03:33:50;99769.13;;;7.78;75.40
58668;BME280;59852;43.086;25.634;2022-10-16T03:36:15;99766.59;;;7.95;74.23
58668;BME280;59852;43.086;25.634;2022-10-16T03:38:41;99759.31;;;7.83;73.87
58668;BME280;59852;43.086;25.634;2022-10-16T03:41:06;99764.16;;;7.72;74.75
58668;BME280;59852;43.086;25.634;2022-10-16T03:43:32;99763.63;;;7.84;73.42
58668;BME280;59852;43.086;25.634;2022-10-16T03:45:58;99767.66;;;7.91;73.85
58668;BME280;59852;43.086;25.634;2022-10-16T03:48:23;99769.13;;;7.78;73.62
58668;BME280;59852;43.086;25.634;2022-10-16T03:50:48;99768.81;;;7.84;74.22
58668;BME280;59852;43.086;25.634;2022-10-16T03:53:15;99776.13;;;7.76;74.86
58668;BME280;59852;43.086;25.634;2022-10-16T03:55:41;99776.19;;;7.74;74.74
58668;BME280;59852;43.086;25.634;2022-10-16T03:58:07;99786.53;;;7.76;74.63
58668;BME280;59852;43.086;25.634;2022-10-16T04:00:32;99770.06;;;7.75;74.56
58668;BME280;59852;43.086;25.634;2022-10-16T04:02:57;99789.03;;;7.59;74.95
58668;BME280;59852;43.086;25.634;2022-10-16T04:05:23;99779.84;;;7.70;74.32
58668;BME280;59852;43.086;25.634;2022-10-16T04:07:49;99784.31;;;7.46;74.49
58668;BME280;59852;43.086;25.634;2022-10-16T04:10:14;99780.88;;;7.46;74.48
58668;BME280;59852;43.086;25.634;2022-10-16T04:12:39;99787.31;;;7.37;74.63
58668;BME280;59852;43.086;25.634;2022-10-16T04:15:05;99779.91;;;7.28;74.76
58668;BME280;59852;43.086;25.634;2022-10-16T04:17:30;99782.72;;;7.44;74.64
58668;BME280;59852;43.086;25.634;2022-10-16T04:19:55;99779.47;;;7.39;73.91
58668;BME280;59852;43.086;25.634;2022-10-16T04:22:21;99781.88;;;7.43;73.78
58668;BME280;59852;43.086;25.634;2022-10-16T04:24:46;99779.97;;;7.47;73.76
58668;BME280;59852;43.086;25.634;2022-10-16T04:27:11;99778.50;;;7.62;73.74
58668;BME280;59852;43.086;25.634;2022-10-16T04:29:36;99777.44;;;7.66;74.19
58668;BME280;59852;43.086;25.634;2022-10-16T04:32:02;99782.91;;;7.60;73.84
58668;BME280;59852;43.086;25.634;2022-10-16T04:34:27;99789.22;;;7.54;74.17
58668;BME280;59852;43.086;25.634;2022-10-16T04:36:52;99783.69;;;7.41;74.56
58668;BME280;59852;43.086;25.634;2022-10-16T04:39:18;99797.09;;;7.73;74.09
58668;BME280;59852;43.086;25.634;2022-10-16T04:41:43;99802.06;;;7.59;73.97
58668;BME280;59852;43.086;25.634;2022-10-16T04:44:09;99803.94;;;7.55;74.13
58668;BME280;59852;43.086;25.634;2022-10-16T04:46:34;99800.75;;;7.48;74.13
58668;BME280;59852;43.086;25.634;2022-10-16T04:48:59;99811.66;;;7.57;73.76
58668;BME280;59852;43.086;25.634;2022-10-16T04:51:25;99818.25;;;7.65;74.26
58668;BME280;59852;43.086;25.634;2022-10-16T04:53:51;99814.91;;;7.41;75.24
58668;BME280;59852;43.086;25.634;2022-10-16T04:56:16;99825.50;;;7.59;74.44
58668;BME280;59852;43.086;25.634;2022-10-16T04:58:42;99816.78;;;7.60;74.80
58668;BME280;59852;43.086;25.634;2022-10-16T05:01:07;99824.50;;;7.82;74.55
58668;BME280;59852;43.086;25.634;2022-10-16T05:03:32;99821.41;;;8.13;73.79
58668;BME280;59852;43.086;25.634;2022-10-16T05:05:58;99823.47;;;8.25;73.71
58668;BME280;59852;43.086;25.634;2022-10-16T05:08:23;99823.59;;;8.42;72.74
58668;BME280;59852;43.086;25.634;2022-10-16T05:10:48;99828.03;;;8.40;70.50
58668;BME280;59852;43.086;25.634;2022-10-16T05:13:14;99825.50;;;8.39;70.32
58668;BME280;59852;43.086;25.634;2022-10-16T05:15:39;99826.44;;;8.38;70.46
58668;BME280;59852;43.086;25.634;2022-10-16T05:18:05;99836.38;;;8.48;70.18
58668;BME280;59852;43.086;25.634;2022-10-16T05:20:30;99836.25;;;8.31;70.67
58668;BME280;59852;43.086;25.634;2022-10-16T05:22:55;99835.22;;;8.15;69.80
58668;BME280;59852;43.086;25.634;2022-10-16T05:25:21;99849.69;;;8.01;70.39
58668;BME280;59852;43.086;25.634;2022-10-16T05:27:47;99847.09;;;8.01;70.69
58668;BME280;59852;43.086;25.634;2022-10-16T05:30:12;99844.50;;;8.01;70.15
58668;BME280;59852;43.086;25.634;2022-10-16T05:32:37;99844.63;;;8.58;68.35
58668;BME280;59852;43.086;25.634;2022-10-16T05:35:03;99847.78;;;9.38;65.36
58668;BME280;59852;43.086;25.634;2022-10-16T05:37:28;99841.31;;;9.63;64.53
58668;BME280;59852;43.086;25.634;2022-10-16T05:39:53;99847.09;;;9.35;65.75
58668;BME280;59852;43.086;25.634;2022-10-16T05:42:19;99854.91;;;9.52;64.90
58668;BME280;59852;43.086;25.634;2022-10-16T05:44:44;99852.06;;;8.84;67.14
58668;BME280;59852;43.086;25.634;2022-10-16T05:47:10;99852.38;;;9.51;66.03
58668;BME280;59852;43.086;25.634;2022-10-16T05:49:37;99857.66;;;8.96;67.75
58668;BME280;59852;43.086;25.634;2022-10-16T05:52:02;99863.38;;;8.66;68.74
58668;BME280;59852;43.086;25.634;2022-10-16T05:54:27;99863.22;;;8.69;69.75
58668;BME280;59852;43.086;25.634;2022-10-16T05:56:53;99862.25;;;8.72;68.91
58668;BME280;59852;43.086;25.634;2022-10-16T05:59:18;99868.94;;;8.77;68.72
58668;BME280;59852;43.086;25.634;2022-10-16T06:01:43;99871.41;;;8.80;69.51
58668;BME280;59852;43.086;25.634;2022-10-16T06:04:09;99879.72;;;8.70;68.91
58668;BME280;59852;43.086;25.634;2022-10-16T06:06:34;99877.75;;;8.75;68.96
58668;BME280;59852;43.086;25.634;2022-10-16T06:09:01;99879.50;;;8.74;69.56
58668;BME280;59852;43.086;25.634;2022-10-16T06:11:28;99879.31;;;8.79;69.58
58668;BME280;59852;43.086;25.634;2022-10-16T06:13:55;99886.47;;;8.74;69.91
58668;BME280;59852;43.086;25.634;2022-10-16T06:16:25;99880.84;;;8.83;69.06
58668;BME280;59852;43.086;25.634;2022-10-16T06:18:51;99885.72;;;8.72;69.86
58668;BME280;59852;43.086;25.634;2022-10-16T06:21:18;99882.69;;;8.81;69.77
58668;BME280;59852;43.086;25.634;2022-10-16T06:23:44;99880.72;;;8.86;69.67
58668;BME280;59852;43.086;25.634;2022-10-16T06:26:15;99891.63;;;8.94;70.24
58668;BME280;59852;43.086;25.634;2022-10-16T06:28:40;99885.22;;;9.01;69.42
58668;BME280;59852;43.086;25.634;2022-10-16T06:31:07;99892.13;;;9.02;69.88
58668;BME280;59852;43.086;25.634;2022-10-16T06:33:32;99893.19;;;8.98;70.67
58668;BME280;59852;43.086;25.634;2022-10-16T06:36:04;99894.63;;;9.05;70.80
58668;BME280;59852;43.086;25.634;2022-10-16T06:38:30;99898.69;;;9.11;70.69
58668;BME280;59852;43.086;25.634;2022-10-16T06:40:56;99894.88;;;9.18;70.62
58668;BME280;59852;43.086;25.634;2022-10-16T06:43:21;99906.34;;;9.33;70.12
58668;BME280;59852;43.086;25.634;2022-10-16T06:45:53;99911.44;;;9.36;69.88
58668;BME280;59852;43.086;25.634;2022-10-16T06:48:19;99911.78;;;9.28;70.05
58668;BME280;59852;43.086;25.634;2022-10-16T06:50:44;99917.72;;;9.32;70.21
58668;BME280;59852;43.086;25.634;2022-10-16T06:53:09;99922.81;;;9.52;69.92
58668;BME280;59852;43.086;25.634;2022-10-16T06:55:35;99925.06;;;9.60;69.85
58668;BME280;59852;43.086;25.634;2022-10-16T06:58:00;99925.59;;;9.49;70.08
58668;BME280;59852;43.086;25.634;2022-10-16T07:00:25;99927.88;;;9.38;71.37
58668;BME280;59852;43.086;25.634;2022-10-16T07:02:51;99923.88;;;10.01;69.33
58668;BME280;59852;43.086;25.634;2022-10-16T07:05:16;99924.81;;;10.18;68.42
58668;BME280;59852;43.086;25.634;2022-10-16T07:07:41;99919.63;;;11.00;66.37
58668;BME280;59852;43.086;25.634;2022-10-16T07:10:07;99921.44;;;11.31;65.00
58668;BME280;59852;43.086;25.634;2022-10-16T07:12:32;99924.81;;;11.33;65.15
58668;BME280;59852;43.086;25.634;2022-10-16T07:14:58;99927.53;;;11.93;63.69
58668;BME280;59852;43.086;25.634;2022-10-16T07:17:23;99929.47;;;11.89;62.15
58668;BME280;59852;43.086;25.634;2022-10-16T07:19:48;99934.91;;;11.86;63.85
58668;BME280;59852;43.086;25.634;2022-10-16T07:22:14;99937.63;;;12.15;64.60
58668;BME280;59852;43.086;25.634;2022-10-16T07:24:39;99935.28;;;11.48;63.52
58668;BME280;59852;43.086;25.634;2022-10-16T07:27:05;99940.31;;;12.72;60.76
58668;BME280;59852;43.086;25.634;2022-10-16T07:29:30;99940.28;;;13.14;60.12
58668;BME280;59852;43.086;25.634;2022-10-16T07:31:56;99943.78;;;13.29;59.74
58668;BME280;59852;43.086;25.634;2022-10-16T07:34:21;99941.63;;;13.75;59.97
58668;BME280;59852;43.086;25.634;2022-10-16T07:36:49;99941.56;;;13.77;58.53
58668;BME280;59852;43.086;25.634;2022-10-16T07:39:15;99938.31;;;13.86;57.32
58668;BME280;59852;43.086;25.634;2022-10-16T07:41:40;99937.16;;;13.77;59.07
58668;BME280;59852;43.086;25.634;2022-10-16T07:44:06;99938.34;;;13.99;57.67
58668;BME280;59852;43.086;25.634;2022-10-16T07:46:31;99938.84;;;13.91;56.58
58668;BME280;59852;43.086;25.634;2022-10-16T07:48:58;99934.81;;;13.73;59.22
58668;BME280;59852;43.086;25.634;2022-10-16T07:51:24;99935.97;;;14.34;57.22
58668;BME280;59852;43.086;25.634;2022-10-16T07:53:50;99933.47;;;14.83;56.01
58668;BME280;59852;43.086;25.634;2022-10-16T07:56:16;99939.28;;;14.63;56.64
58668;BME280;59852;43.086;25.634;2022-10-16T07:58:42;99939.47;;;14.98;54.95
58668;BME280;59852;43.086;25.634;2022-10-16T08:01:08;99939.94;;;15.29;54.77
58668;BME280;59852;43.086;25.634;2022-10-16T08:03:34;99928.97;;;15.22;55.07
58668;BME280;59852;43.086;25.634;2022-10-16T08:05:59;99927.69;;;14.91;55.42
58668;BME280;59852;43.086;25.634;2022-10-16T08:08:25;99932.38;;;15.48;55.02
58668;BME280;59852;43.086;25.634;2022-10-16T08:10:50;99942.03;;;14.74;55.65
58668;BME280;59852;43.086;25.634;2022-10-16T08:13:16;99935.84;;;14.10;57.65
58668;BME280;59852;43.086;25.634;2022-10-16T08:15:42;99936.81;;;14.22;57.37
58668;BME280;59852;43.086;25.634;2022-10-16T08:18:08;99935.91;;;14.35;58.75
58668;BME280;59852;43.086;25.634;2022-10-16T08:20:34;99940.88;;;14.66;57.41
58668;BME280;59852;43.086;25.634;2022-10-16T08:23:00;99928.19;;;14.32;59.51
58668;BME280;59852;43.086;25.634;2022-10-16T08:25:25;99929.06;;;13.81;58.55
58668;BME280;59852;43.086;25.634;2022-10-16T08:27:51;99929.78;;;13.83;57.54
58668;BME280;59852;43.086;25.634;2022-10-16T08:30:19;99926.78;;;14.01;57.86
58668;BME280;59852;43.086;25.634;2022-10-16T08:32:44;99923.03;;;14.18;57.80
58668;BME280;59852;43.086;25.634;2022-10-16T08:35:10;99924.81;;;14.18;56.93
58668;BME280;59852;43.086;25.634;2022-10-16T08:37:35;99930.88;;;13.93;57.71
58668;BME280;59852;43.086;25.634;2022-10-16T08:40:01;99934.19;;;13.82;56.71
58668;BME280;59852;43.086;25.634;2022-10-16T08:42:37;99925.78;;;13.77;57.82
58668;BME280;59852;43.086;25.634;2022-10-16T08:47:44;99928.13;;;13.94;57.79
58668;BME280;59852;43.086;25.634;2022-10-16T08:50:13;99935.66;;;13.73;57.62
58668;BME280;59852;43.086;25.634;2022-10-16T08:52:41;99921.66;;;13.73;56.69
58668;BME280;59852;43.086;25.634;2022-10-16T08:55:08;99936.13;;;13.93;57.04
58668;BME280;59852;43.086;25.634;2022-10-16T08:57:41;99927.38;;;13.92;56.40
58668;BME280;59852;43.086;25.634;2022-10-16T09:00:12;99925.16;;;13.86;55.84
58668;BME280;59852;43.086;25.634;2022-10-16T09:02:44;99933.81;;;13.88;55.43
58668;BME280;59852;43.086;25.634;2022-10-16T09:08:01;99930.13;;;13.91;56.02
58668;BME280;59852;43.086;25.634;2022-10-16T09:18:20;99932.28;;;13.71;50.72
58668;BME280;59852;43.086;25.634;2022-10-16T09:20:49;99938.94;;;13.77;51.25
58668;BME280;59852;43.086;25.634;2022-10-16T09:23:18;99935.25;;;13.80;50.64
58668;BME280;59852;43.086;25.634;2022-10-16T09:25:47;99931.69;;;13.81;50.62
58668;BME280;59852;43.086;25.634;2022-10-16T09:28:14;99932.66;;;13.65;50.20
58668;BME280;59852;43.086;25.634;2022-10-16T09:30:39;99934.56;;;13.63;51.55
58668;BME280;59852;43.086;25.634;2022-10-16T09:33:05;99926.91;;;13.73;51.81
58668;BME280;59852;43.086;25.634;2022-10-16T09:35:38;99936.19;;;13.78;51.39
58668;BME280;59852;43.086;25.634;2022-10-16T09:38:05;99930.09;;;13.78;50.92
58668;BME280;59852;43.086;25.634;2022-10-16T09:40:37;99929.50;;;13.87;50.67
58668;BME280;59852;43.086;25.634;2022-10-16T09:43:16;99928.84;;;13.84;50.39
58668;BME280;59852;43.086;25.634;2022-10-16T09:45:52;99922.44;;;13.88;50.16
58668;BME280;59852;43.086;25.634;2022-10-16T09:48:18;99924.56;;;13.95;50.10
58668;BME280;59852;43.086;25.634;2022-10-16T09:50:54;99925.59;;;13.93;50.71
58668;BME280;59852;43.086;25.634;2022-10-16T09:53:20;99923.09;;;13.91;49.87
58668;BME280;59852;43.086;25.634;2022-10-16T09:55:51;99925.50;;;13.94;49.40
58668;BME280;59852;43.086;25.634;2022-10-16T09:58:17;99927.84;;;13.99;50.65
58668;BME280;59852;43.086;25.634;2022-10-16T10:00:48;99935.63;;;14.00;51.46
58668;BME280;59852;43.086;25.634;2022-10-16T10:06:25;99924.03;;;14.03;51.35
58668;BME280;59852;43.086;25.634;2022-10-16T10:08:56;99926.88;;;14.00;50.21
58668;BME280;59852;43.086;25.634;2022-10-16T10:14:06;99920.50;;;14.17;49.99
58668;BME280;59852;43.086;25.634;2022-10-16T10:16:31;99916.16;;;14.03;51.14
58668;BME280;59852;43.086;25.634;2022-10-16T10:19:00;99911.00;;;14.14;50.90
58668;BME280;59852;43.086;25.634;2022-10-16T10:21:25;99909.31;;;14.13;50.53
58668;BME280;59852;43.086;25.634;2022-10-16T10:23:57;99914.63;;;14.26;51.18
58668;BME280;59852;43.086;25.634;2022-10-16T10:26:24;99914.06;;;14.08;50.09
58668;BME280;59852;43.086;25.634;2022-10-16T10:29:04;99901.66;;;14.10;50.90
58668;BME280;59852;43.086;25.634;2022-10-16T10:31:37;99903.97;;;14.15;49.94
58668;BME280;59852;43.086;25.634;2022-10-16T10:36:53;99906.69;;;14.13;50.47
58668;BME280;59852;43.086;25.634;2022-10-16T10:39:30;99903.34;;;14.11;49.78
58668;BME280;59852;43.086;25.634;2022-10-16T10:46:53;99894.09;;;14.18;49.42
58668;BME280;59852;43.086;25.634;2022-10-16T10:54:23;99884.84;;;14.51;49.78
58668;BME280;59852;43.086;25.634;2022-10-16T10:56:51;99889.75;;;14.43;49.87
58668;BME280;59852;43.086;25.634;2022-10-16T11:02:04;99876.50;;;14.44;50.07
58668;BME280;59852;43.086;25.634;2022-10-16T11:04:45;99870.00;;;14.50;50.15
58668;BME280;59852;43.086;25.634;2022-10-16T11:07:16;99870.50;;;14.55;50.24
58668;BME280;59852;43.086;25.634;2022-10-16T11:09:51;99860.50;;;14.34;51.33
58668;BME280;59852;43.086;25.634;2022-10-16T11:12:30;99868.50;;;14.33;50.73
58668;BME280;59852;43.086;25.634;2022-10-16T11:15:00;99864.84;;;14.35;49.83
58668;BME280;59852;43.086;25.634;2022-10-16T11:17:48;99861.34;;;14.60;50.67
58668;BME280;59852;43.086;25.634;2022-10-16T11:22:48;99866.97;;;14.56;50.70
58668;BME280;59852;43.086;25.634;2022-10-16T11:27:51;99867.66;;;14.71;50.75
58668;BME280;59852;43.086;25.634;2022-10-16T11:30:27;99867.84;;;14.80;50.92
58668;BME280;59852;43.086;25.634;2022-10-16T11:32:56;99872.31;;;14.67;50.16
58668;BME280;59852;43.086;25.634;2022-10-16T11:35:44;99870.31;;;14.58;51.35
58668;BME280;59852;43.086;25.634;2022-10-16T11:38:17;99868.94;;;14.65;51.34
58668;BME280;59852;43.086;25.634;2022-10-16T11:40:46;99865.84;;;14.84;50.62
58668;BME280;59852;43.086;25.634;2022-10-16T11:43:22;99872.91;;;14.83;50.59
58668;BME280;59852;43.086;25.634;2022-10-16T11:45:54;99866.94;;;14.69;49.97
58668;BME280;59852;43.086;25.634;2022-10-16T11:50:50;99862.63;;;14.55;49.91
58668;BME280;59852;43.086;25.634;2022-10-16T11:55:45;99857.00;;;14.72;50.05
58668;BME280;59852;43.086;25.634;2022-10-16T12:03:32;99863.13;;;14.73;50.88
58668;BME280;59852;43.086;25.634;2022-10-16T12:06:06;99862.72;;;14.66;50.21
58668;BME280;59852;43.086;25.634;2022-10-16T12:08:35;99866.63;;;14.60;50.51
58668;BME280;59852;43.086;25.634;2022-10-16T12:11:20;99867.03;;;14.67;50.44
58668;BME280;59852;43.086;25.634;2022-10-16T12:13:47;99870.41;;;14.69;50.13
58668;BME280;59852;43.086;25.634;2022-10-16T12:18:39;99863.34;;;14.70;50.38
58668;BME280;59852;43.086;25.634;2022-10-16T12:21:05;99870.28;;;14.71;50.87
58668;BME280;59852;43.086;25.634;2022-10-16T12:23:32;99876.28;;;14.73;50.12
58668;BME280;59852;43.086;25.634;2022-10-16T12:25:58;99869.75;;;14.78;49.64
58668;BME280;59852;43.086;25.634;2022-10-16T12:28:28;99873.47;;;14.76;49.72
58668;BME280;59852;43.086;25.634;2022-10-16T12:31:04;99871.25;;;14.70;49.02
58668;BME280;59852;43.086;25.634;2022-10-16T12:33:32;99867.56;;;14.72;49.40
58668;BME280;59852;43.086;25.634;2022-10-16T12:35:58;99874.84;;;14.69;48.96
58668;BME280;59852;43.086;25.634;2022-10-16T12:38:29;99873.03;;;14.69;48.67
58668;BME280;59852;43.086;25.634;2022-10-16T12:48:36;99864.91;;;14.85;49.07
58668;BME280;59852;43.086;25.634;2022-10-16T12:53:36;99880.78;;;14.83;48.49
58668;BME280;59852;43.086;25.634;2022-10-16T12:56:19;99876.81;;;14.78;48.92
58668;BME280;59852;43.086;25.634;2022-10-16T13:21:58;99879.47;;;15.14;47.86
58668;BME280;59852;43.086;25.634;2022-10-16T13:27:06;99884.25;;;14.97;49.17
58668;BME280;59852;43.086;25.634;2022-10-16T13:29:32;99882.81;;;14.80;50.58
58668;BME280;59852;43.086;25.634;2022-10-16T13:31:59;99889.25;;;14.76;50.48
58668;BME280;59852;43.086;25.634;2022-10-16T13:34:25;99887.66;;;14.73;50.10
58668;BME280;59852;43.086;25.634;2022-10-16T13:36:52;99892.66;;;14.65;50.59
58668;BME280;59852;43.086;25.634;2022-10-16T13:39:25;99891.91;;;14.76;48.70
58668;BME280;59852;43.086;25.634;2022-10-16T13:42:04;99885.88;;;14.74;48.82
58668;BME280;59852;43.086;25.634;2022-10-16T13:44:31;99890.63;;;14.69;48.82
58668;BME280;59852;43.086;25.634;2022-10-16T13:47:00;99890.84;;;14.78;48.66
58668;BME280;59852;43.086;25.634;2022-10-16T13:49:25;99895.91;;;14.69;49.41
58668;BME280;59852;43.086;25.634;2022-10-16T13:51:55;99899.19;;;14.59;50.75
58668;BME280;59852;43.086;25.634;2022-10-16T13:54:21;99903.38;;;14.62;49.64
58668;BME280;59852;43.086;25.634;2022-10-16T13:56:46;99899.28;;;14.58;49.96
58668;BME280;59852;43.086;25.634;2022-10-16T14:04:50;99893.06;;;14.59;48.46
58668;BME280;59852;43.086;25.634;2022-10-16T14:07:25;99889.06;;;14.53;49.14
58668;BME280;59852;43.086;25.634;2022-10-16T14:09:52;99890.72;;;14.54;49.12
58668;BME280;59852;43.086;25.634;2022-10-16T14:12:18;99890.13;;;14.51;49.29
58668;BME280;59852;43.086;25.634;2022-10-16T14:14:45;99903.28;;;14.51;48.39
58668;BME280;59852;43.086;25.634;2022-10-16T14:17:15;99894.88;;;14.46;49.01
58668;BME280;59852;43.086;25.634;2022-10-16T14:19:40;99897.19;;;14.50;48.55
58668;BME280;59852;43.086;25.634;2022-10-16T14:22:28;99900.53;;;14.52;48.94
58668;BME280;59852;43.086;25.634;2022-10-16T14:24:54;99904.44;;;14.47;48.72
58668;BME280;59852;43.086;25.634;2022-10-16T14:27:26;99901.13;;;14.43;47.86
58668;BME280;59852;43.086;25.634;2022-10-16T14:30:05;99903.03;;;14.41;48.66
58668;BME280;59852;43.086;25.634;2022-10-16T14:32:34;99897.88;;;14.40;48.46
58668;BME280;59852;43.086;25.634;2022-10-16T14:34:59;99903.38;;;14.37;48.05
58668;BME280;59852;43.086;25.634;2022-10-16T14:37:26;99904.84;;;14.41;47.95
58668;BME280;59852;43.086;25.634;2022-10-16T14:39:51;99912.63;;;14.42;47.87
58668;BME280;59852;43.086;25.634;2022-10-16T14:42:18;99909.50;;;14.50;47.29
58668;BME280;59852;43.086;25.634;2022-10-16T14:44:44;99909.50;;;14.50;46.98
58668;BME280;59852;43.086;25.634;2022-10-16T14:47:13;99910.31;;;14.38;48.39
58668;BME280;59852;43.086;25.634;2022-10-16T14:49:41;99911.56;;;14.32;48.15